createdAt,value
2018-06-11T00:00:32.352Z,16.40
2018-06-11T00:01:40.405Z,16.40
2018-06-11T00:02:48.732Z,16.44
2018-06-11T00:03:56.554Z,16.39
2018-06-11T00:05:04.611Z,16.39
2018-06-11T00:06:12.675Z,16.40
2018-06-11T00:07:20.767Z,16.37
2018-06-11T00:08:28.818Z,16.32
2018-06-11T00:09:36.878Z,16.36
2018-06-11T00:10:44.921Z,16.46
2018-06-11T00:11:53.019Z,16.32
2018-06-11T00:13:01.093Z,16.32
2018-06-11T00:14:09.145Z,16.32
2018-06-11T00:15:17.218Z,16.41
2018-06-11T00:16:25.273Z,16.36
2018-06-11T00:17:33.347Z,16.32
2018-06-11T00:18:41.401Z,16.31
2018-06-11T00:19:49.484Z,16.29
2018-06-11T00:20:57.565Z,16.32
2018-06-11T00:22:05.621Z,16.25
2018-06-11T00:23:13.684Z,16.26
2018-06-11T00:24:21.778Z,16.25
2018-06-11T00:25:29.827Z,16.24
2018-06-11T00:26:37.890Z,16.18
2018-06-11T00:27:45.949Z,16.17
2018-06-11T00:28:54.027Z,16.18
2018-06-11T00:30:02.089Z,16.09
2018-06-11T00:31:10.168Z,16.09
2018-06-11T00:32:18.241Z,16.06
2018-06-11T00:33:26.289Z,16.12
2018-06-11T00:34:34.363Z,16.10
2018-06-11T00:35:42.435Z,16.08
2018-06-11T00:36:50.489Z,16.03
2018-06-11T00:37:58.557Z,15.99
2018-06-11T00:39:06.661Z,15.92
2018-06-11T00:40:14.683Z,15.90
2018-06-11T00:41:22.767Z,15.98
2018-06-11T00:42:30.824Z,15.90
2018-06-11T00:43:38.909Z,15.92
2018-06-11T00:44:46.966Z,16.00
2018-06-11T00:45:55.003Z,16.05
2018-06-11T00:47:03.090Z,16.03
2018-06-11T00:48:11.160Z,16.02
2018-06-11T00:49:19.223Z,16.03
2018-06-11T00:50:27.287Z,16.09
2018-06-11T00:51:35.338Z,16.08
2018-06-11T00:52:43.428Z,16.10
2018-06-11T00:53:51.487Z,16.03
2018-06-11T00:54:59.550Z,16.03
2018-06-11T00:56:07.619Z,16.09
2018-06-11T00:57:15.685Z,16.12
2018-06-11T00:58:23.763Z,16.10
2018-06-11T00:59:31.833Z,16.08
2018-06-11T01:00:39.892Z,16.03
2018-06-11T01:01:47.955Z,16.08
2018-06-11T01:02:56.024Z,16.06
2018-06-11T01:04:04.093Z,16.21
2018-06-11T01:05:12.170Z,16.13
2018-06-11T01:06:20.226Z,16.22
2018-06-11T01:07:28.296Z,16.18
2018-06-11T01:08:36.363Z,16.22
2018-06-11T01:09:44.413Z,16.24
2018-06-11T01:10:52.483Z,16.26
2018-06-11T01:12:00.555Z,16.31
2018-06-11T01:13:08.614Z,16.28
2018-06-11T01:14:16.674Z,16.32
2018-06-11T01:15:24.725Z,16.34
2018-06-11T01:16:32.821Z,16.31
2018-06-11T01:17:40.885Z,16.32
2018-06-11T01:18:48.937Z,16.36
2018-06-11T01:19:57.021Z,16.31
2018-06-11T01:21:05.066Z,16.36
2018-06-11T01:22:13.146Z,16.36
2018-06-11T01:23:21.203Z,16.37
2018-06-11T01:24:29.286Z,16.40
2018-06-11T01:25:37.351Z,16.39
2018-06-11T01:26:45.397Z,16.32
2018-06-11T01:27:53.480Z,16.40
2018-06-11T01:29:01.564Z,16.36
2018-06-11T01:30:09.614Z,16.40
2018-06-11T01:31:17.678Z,16.44
2018-06-11T01:32:25.759Z,16.34
2018-06-11T01:33:33.813Z,16.34
2018-06-11T01:34:41.894Z,16.37
2018-06-11T01:35:49.962Z,16.32
2018-06-11T01:36:58.025Z,16.37
2018-06-11T01:38:06.102Z,16.29
2018-06-11T01:39:14.160Z,16.28
2018-06-11T01:40:22.257Z,16.26
2018-06-11T01:41:30.333Z,16.17
2018-06-11T01:42:43.513Z,16.06
2018-06-11T01:43:46.467Z,16.13
2018-06-11T01:44:54.515Z,16.18
2018-06-11T01:46:02.596Z,16.10
2018-06-11T01:47:10.670Z,16.08
2018-06-11T01:48:18.729Z,16.09
2018-06-11T01:49:26.800Z,16.05
2018-06-11T01:50:34.838Z,16.03
2018-06-11T01:51:42.942Z,16.13
2018-06-11T01:52:51.003Z,15.91
2018-06-11T01:53:59.072Z,15.96
2018-06-11T01:55:07.146Z,15.99
2018-06-11T01:56:15.185Z,15.91
2018-06-11T01:57:23.275Z,15.88
2018-06-11T01:58:31.341Z,15.80
2018-06-11T01:59:39.412Z,15.87
2018-06-11T02:00:47.471Z,15.90
2018-06-11T02:01:55.534Z,15.70
2018-06-11T02:03:03.634Z,15.73
2018-06-11T02:04:11.676Z,15.73
2018-06-11T02:05:19.767Z,15.67
2018-06-11T02:06:27.827Z,15.67
2018-06-11T02:07:35.898Z,15.60
2018-06-11T02:08:43.955Z,15.57
2018-06-11T02:09:52.016Z,15.63
2018-06-11T02:11:00.080Z,15.60
2018-06-11T02:12:08.169Z,15.54
2018-06-11T02:13:16.225Z,15.52
2018-06-11T02:14:24.300Z,15.59
2018-06-11T02:15:32.360Z,15.47
2018-06-11T02:16:40.427Z,15.45
2018-06-11T02:17:48.498Z,15.48
2018-06-11T02:18:56.573Z,15.45
2018-06-11T02:20:04.616Z,15.47
2018-06-11T02:21:12.704Z,15.45
2018-06-11T02:22:20.772Z,15.51
2018-06-11T02:23:28.832Z,15.50
2018-06-11T02:24:36.908Z,15.44
2018-06-11T02:25:44.945Z,15.45
2018-06-11T02:26:53.052Z,15.48
2018-06-11T02:28:01.105Z,15.48
2018-06-11T02:29:09.181Z,15.47
2018-06-11T02:30:17.250Z,15.47
2018-06-11T02:31:25.300Z,15.41
2018-06-11T02:32:33.377Z,15.45
2018-06-11T02:33:41.430Z,15.47
2018-06-11T02:34:49.521Z,15.48
2018-06-11T02:35:57.589Z,15.36
2018-06-11T02:37:05.650Z,15.35
2018-06-11T02:38:13.718Z,15.45
2018-06-11T02:39:21.791Z,15.35
2018-06-11T02:40:29.855Z,15.33
2018-06-11T02:41:37.919Z,15.29
2018-06-11T02:42:45.993Z,15.35
2018-06-11T02:43:54.059Z,15.36
2018-06-11T02:45:02.123Z,15.25
2018-06-11T02:46:10.196Z,15.25
2018-06-11T02:47:18.263Z,15.22
2018-06-11T02:48:26.329Z,15.23
2018-06-11T02:49:34.405Z,15.19
2018-06-11T02:50:42.464Z,15.22
2018-06-11T02:51:50.525Z,15.18
2018-06-11T02:52:58.585Z,15.18
2018-06-11T02:54:06.665Z,15.17
2018-06-11T02:55:14.716Z,15.26
2018-06-11T02:56:22.808Z,15.25
2018-06-11T02:57:30.896Z,15.15
2018-06-11T02:58:39.144Z,15.23
2018-06-11T02:59:47.222Z,15.23
2018-06-11T03:00:55.252Z,15.23
2018-06-11T03:02:03.352Z,15.26
2018-06-11T03:03:11.419Z,15.18
2018-06-11T03:04:19.488Z,15.15
2018-06-11T03:05:27.574Z,15.22
2018-06-11T03:06:35.615Z,15.17
2018-06-11T03:07:43.686Z,15.12
2018-06-11T03:08:51.745Z,15.18
2018-06-11T03:09:59.816Z,15.19
2018-06-11T03:11:07.963Z,15.17
2018-06-11T03:12:15.949Z,15.11
2018-06-11T03:13:24.006Z,15.14
2018-06-11T03:14:32.074Z,15.15
2018-06-11T03:15:40.205Z,15.17
2018-06-11T03:16:48.212Z,15.17
2018-06-11T03:17:56.283Z,15.10
2018-06-11T03:19:04.344Z,15.18
2018-06-11T03:20:12.407Z,15.08
2018-06-11T03:21:20.472Z,15.08
2018-06-11T03:22:28.535Z,15.14
2018-06-11T03:23:36.639Z,15.10
2018-06-11T03:24:44.662Z,15.17
2018-06-11T03:25:52.740Z,15.10
2018-06-11T03:27:00.859Z,15.11
2018-06-11T03:28:08.871Z,15.11
2018-06-11T03:29:16.933Z,15.17
2018-06-11T03:30:24.977Z,15.17
2018-06-11T03:31:33.076Z,15.14
2018-06-11T03:32:41.143Z,15.18
2018-06-11T03:33:49.202Z,15.18
2018-06-11T03:34:57.267Z,15.22
2018-06-11T03:36:05.313Z,15.23
2018-06-11T03:37:13.419Z,15.18
2018-06-11T03:38:21.479Z,15.22
2018-06-11T03:39:29.550Z,15.23
2018-06-11T03:40:37.614Z,15.23
2018-06-11T03:41:45.680Z,15.27
2018-06-11T03:42:53.768Z,15.23
2018-06-11T03:44:01.817Z,15.22
2018-06-11T03:45:09.880Z,15.22
2018-06-11T03:46:17.956Z,15.37
2018-06-11T03:47:26.025Z,15.29
2018-06-11T03:48:34.085Z,15.33
2018-06-11T03:49:42.170Z,15.35
2018-06-11T03:50:50.230Z,15.32
2018-06-11T03:51:58.298Z,15.35
2018-06-11T03:53:06.363Z,15.35
2018-06-11T03:54:14.412Z,15.39
2018-06-11T03:55:22.490Z,15.48
2018-06-11T03:56:30.557Z,15.44
2018-06-11T03:57:38.635Z,15.55
2018-06-11T03:58:46.709Z,15.43
2018-06-11T03:59:54.738Z,15.45
2018-06-11T04:01:02.827Z,15.37
2018-06-11T04:02:10.907Z,15.52
2018-06-11T04:03:18.963Z,15.50
2018-06-11T04:04:27.051Z,15.47
2018-06-11T04:05:36.152Z,15.48
2018-06-11T04:06:43.163Z,15.62
2018-06-11T04:07:51.227Z,15.62
2018-06-11T04:08:59.304Z,15.63
2018-06-11T04:10:07.382Z,15.52
2018-06-11T04:11:15.425Z,15.54
2018-06-11T04:12:23.502Z,15.54
2018-06-11T04:13:32.166Z,15.60
2018-06-11T04:14:39.634Z,15.59
2018-06-11T04:15:47.708Z,15.65
2018-06-11T04:16:55.971Z,15.65
2018-06-11T04:18:03.879Z,15.67
2018-06-11T04:19:11.903Z,15.66
2018-06-11T04:20:19.966Z,15.70
2018-06-11T04:21:28.037Z,15.78
2018-06-11T04:22:38.004Z,15.76
2018-06-11T04:23:44.173Z,15.76
2018-06-11T04:24:52.234Z,15.80
2018-06-11T04:26:00.355Z,15.81
2018-06-11T04:27:08.383Z,15.80
2018-06-11T04:28:16.440Z,15.78
2018-06-11T04:29:24.501Z,15.84
2018-06-11T04:30:32.603Z,15.85
2018-06-11T04:31:40.636Z,15.87
2018-06-11T04:32:48.906Z,15.92
2018-06-11T04:33:56.778Z,15.90
2018-06-11T04:35:04.813Z,15.94
2018-06-11T04:36:12.910Z,15.90
2018-06-11T04:37:20.979Z,16.02
2018-06-11T04:38:29.037Z,15.94
2018-06-11T04:39:37.148Z,16.02
2018-06-11T04:40:45.161Z,16.08
2018-06-11T04:41:53.258Z,16.10
2018-06-11T04:43:01.320Z,16.22
2018-06-11T04:44:09.374Z,16.13
2018-06-11T04:45:17.461Z,16.13
2018-06-11T04:46:25.514Z,16.26
2018-06-11T04:47:33.580Z,16.32
2018-06-11T04:48:41.654Z,16.28
2018-06-11T04:49:49.710Z,16.37
2018-06-11T04:50:57.796Z,16.41
2018-06-11T04:52:05.847Z,16.47
2018-06-11T04:53:13.919Z,16.44
2018-06-11T04:54:21.981Z,16.51
2018-06-11T04:55:31.874Z,16.59
2018-06-11T04:56:38.123Z,16.62
2018-06-11T04:57:46.458Z,16.66
2018-06-11T04:58:54.266Z,16.73
2018-06-11T05:00:02.335Z,16.80
2018-06-11T05:01:10.406Z,16.79
2018-06-11T05:02:18.467Z,16.79
2018-06-11T05:03:26.546Z,16.86
2018-06-11T05:04:34.619Z,16.95
2018-06-11T05:05:42.689Z,17.30
2018-06-11T05:06:50.752Z,17.80
2018-06-11T05:07:58.818Z,18.06
2018-06-11T05:09:07.461Z,17.97
2018-06-11T05:10:14.922Z,17.95
2018-06-11T05:11:23.017Z,17.80
2018-06-11T05:12:31.091Z,17.82
2018-06-11T05:13:39.169Z,17.75
2018-06-11T05:14:47.225Z,17.80
2018-06-11T05:15:55.279Z,17.76
2018-06-11T05:17:03.356Z,17.80
2018-06-11T05:18:11.433Z,17.78
2018-06-11T05:19:19.529Z,17.86
2018-06-11T05:20:27.561Z,17.91
2018-06-11T05:21:35.643Z,17.90
2018-06-11T05:22:43.705Z,17.98
2018-06-11T05:23:51.769Z,18.09
2018-06-11T05:24:59.886Z,18.21
2018-06-11T05:26:07.913Z,18.30
2018-06-11T05:27:15.981Z,18.46
2018-06-11T05:28:24.048Z,18.64
2018-06-11T05:29:32.113Z,18.73
2018-06-11T05:30:40.177Z,18.79
2018-06-11T05:31:48.250Z,18.96
2018-06-11T05:32:56.316Z,19.07
2018-06-11T05:34:04.390Z,19.16
2018-06-11T05:35:12.469Z,19.11
2018-06-11T05:36:20.525Z,19.24
2018-06-11T05:37:28.597Z,19.27
2018-06-11T05:38:36.668Z,19.29
2018-06-11T05:39:44.710Z,19.42
2018-06-11T05:40:52.812Z,19.38
2018-06-11T05:42:00.869Z,19.47
2018-06-11T05:43:08.953Z,19.44
2018-06-11T05:44:17.014Z,19.48
2018-06-11T05:45:25.062Z,19.56
2018-06-11T05:46:33.165Z,19.56
2018-06-11T05:47:41.221Z,19.55
2018-06-11T05:48:49.301Z,19.57
2018-06-11T05:49:57.358Z,19.62
2018-06-11T05:51:05.415Z,19.67
2018-06-11T05:52:13.508Z,19.66
2018-06-11T05:53:21.607Z,19.74
2018-06-11T05:54:29.645Z,19.75
2018-06-11T05:55:37.716Z,19.85
2018-06-11T05:56:45.778Z,19.92
2018-06-11T05:57:53.846Z,20.03
2018-06-11T05:59:01.927Z,20.02
2018-06-11T06:00:10.005Z,20.11
2018-06-11T06:01:18.067Z,20.12
2018-06-11T06:02:26.133Z,20.14
2018-06-11T06:03:34.214Z,20.24
2018-06-11T06:04:42.266Z,20.26
2018-06-11T06:05:50.344Z,20.29
2018-06-11T06:06:58.404Z,20.37
2018-06-11T06:08:06.478Z,20.49
2018-06-11T06:09:14.549Z,20.50
2018-06-11T06:10:22.625Z,20.50
2018-06-11T06:11:30.691Z,20.52
2018-06-11T06:12:38.776Z,20.53
2018-06-11T06:13:46.830Z,20.52
2018-06-11T06:14:54.886Z,20.59
2018-06-11T06:16:02.985Z,20.70
2018-06-11T06:17:11.049Z,20.70
2018-06-11T06:18:19.116Z,20.70
2018-06-11T06:19:27.198Z,20.74
2018-06-11T06:20:35.253Z,20.68
2018-06-11T06:21:43.323Z,20.80
2018-06-11T06:22:51.417Z,20.82
2018-06-11T06:23:59.467Z,20.82
2018-06-11T06:25:07.544Z,20.90
2018-06-11T06:26:15.626Z,20.82
2018-06-11T06:27:23.684Z,20.82
2018-06-11T06:28:31.768Z,20.80
2018-06-11T06:29:39.821Z,20.90
2018-06-11T06:31:55.981Z,20.89
2018-06-11T06:33:04.058Z,20.90
2018-06-11T06:34:12.139Z,20.90
2018-06-11T06:35:20.190Z,20.89
2018-06-11T06:36:28.264Z,20.90
2018-06-11T06:37:36.331Z,20.95
2018-06-11T06:38:44.447Z,21.04
2018-06-11T06:39:52.491Z,21.10
2018-06-11T06:41:00.562Z,21.07
2018-06-11T06:42:08.650Z,21.13
2018-06-11T06:43:16.700Z,21.25
2018-06-11T06:44:24.764Z,21.37
2018-06-11T06:45:32.839Z,21.43
2018-06-11T06:46:40.917Z,21.47
2018-06-11T06:47:48.990Z,21.44
2018-06-11T06:48:57.072Z,21.43
2018-06-11T06:50:05.123Z,21.33
2018-06-11T06:51:13.186Z,21.33
2018-06-11T06:52:21.267Z,21.33
2018-06-11T06:53:29.342Z,21.23
2018-06-11T06:54:37.408Z,21.32
2018-06-11T06:55:45.512Z,21.30
2018-06-11T06:56:53.581Z,21.32
2018-06-11T06:58:01.653Z,21.33
2018-06-11T06:59:09.701Z,21.41
2018-06-11T07:00:17.770Z,21.41
2018-06-11T07:01:25.843Z,21.44
2018-06-11T07:02:33.938Z,21.35
2018-06-11T07:03:41.998Z,21.40
2018-06-11T07:04:50.051Z,21.50
2018-06-11T07:05:58.118Z,21.50
2018-06-11T07:07:06.220Z,21.53
2018-06-11T07:08:14.273Z,21.58
2018-06-11T07:09:22.346Z,21.62
2018-06-11T07:10:30.416Z,21.63
2018-06-11T07:11:38.480Z,21.65
2018-06-11T07:12:46.566Z,21.60
2018-06-11T07:13:54.630Z,21.59
2018-06-11T07:15:02.705Z,21.62
2018-06-11T07:16:10.771Z,21.56
2018-06-11T07:17:18.838Z,21.74
2018-06-11T07:18:26.906Z,21.53
2018-06-11T07:19:35.001Z,21.72
2018-06-11T07:20:43.039Z,21.65
2018-06-11T07:21:51.191Z,21.69
2018-06-11T07:22:59.210Z,21.68
2018-06-11T07:24:07.273Z,21.63
2018-06-11T07:25:15.328Z,21.70
2018-06-11T07:26:23.427Z,21.74
2018-06-11T07:27:31.486Z,21.74
2018-06-11T07:28:39.562Z,21.81
2018-06-11T07:29:47.640Z,21.91
2018-06-11T07:30:55.734Z,21.92
2018-06-11T07:32:03.767Z,22.21
2018-06-11T07:33:11.867Z,22.40
2018-06-11T07:34:19.937Z,22.63
2018-06-11T07:35:27.997Z,22.76
2018-06-11T07:36:36.062Z,22.89
2018-06-11T07:37:44.144Z,23.14
2018-06-11T07:38:52.204Z,23.21
2018-06-11T07:40:00.282Z,23.26
2018-06-11T07:41:08.343Z,23.42
2018-06-11T07:42:16.423Z,23.54
2018-06-11T07:43:24.517Z,23.62
2018-06-11T07:44:32.567Z,23.74
2018-06-11T07:45:40.636Z,23.85
2018-06-11T07:46:48.735Z,24.63
2018-06-11T07:47:56.823Z,25.43
2018-06-11T07:49:04.848Z,25.41
2018-06-11T07:50:12.928Z,25.88
2018-06-11T07:51:21.038Z,26.39
2018-06-11T07:52:29.080Z,26.63
2018-06-11T07:53:37.153Z,26.52
2018-06-11T07:54:45.233Z,26.73
2018-06-11T07:55:53.306Z,27.08
2018-06-11T07:57:01.382Z,27.34
2018-06-11T07:58:09.464Z,27.85
2018-06-11T07:59:17.527Z,28.06
2018-06-11T08:00:25.617Z,28.03
2018-06-11T08:01:33.686Z,28.06
2018-06-11T08:02:41.785Z,27.93
2018-06-11T08:03:49.858Z,27.95
2018-06-11T08:04:57.946Z,27.79
2018-06-11T08:06:06.013Z,27.83
2018-06-11T08:07:14.087Z,27.63
2018-06-11T08:08:22.166Z,27.45
2018-06-11T08:09:30.239Z,27.41
2018-06-11T08:10:38.331Z,27.08
2018-06-11T08:11:46.405Z,27.20
2018-06-11T08:12:54.485Z,27.04
2018-06-11T08:14:02.562Z,27.05
2018-06-11T08:15:10.637Z,26.93
2018-06-11T08:16:18.721Z,26.86
2018-06-11T08:17:26.799Z,26.89
2018-06-11T08:18:34.899Z,26.88
2018-06-11T08:19:42.958Z,26.88
2018-06-11T08:20:51.060Z,26.85
2018-06-11T08:21:59.102Z,26.76
2018-06-11T08:23:07.171Z,26.76
2018-06-11T08:24:15.236Z,26.74
2018-06-11T08:25:23.326Z,26.70
2018-06-11T08:26:31.416Z,26.71
2018-06-11T08:27:39.495Z,26.60
2018-06-11T08:28:47.563Z,26.70
2018-06-11T08:29:55.644Z,26.60
2018-06-11T08:31:03.725Z,26.68
2018-06-11T08:32:11.802Z,26.60
2018-06-11T08:33:19.893Z,26.56
2018-06-11T08:34:27.958Z,26.34
2018-06-11T08:35:36.025Z,26.10
2018-06-11T08:36:44.100Z,26.16
2018-06-11T08:37:52.169Z,26.18
2018-06-11T08:39:00.247Z,26.10
2018-06-11T08:40:08.332Z,26.22
2018-06-11T08:41:16.416Z,26.30
2018-06-11T08:42:24.469Z,26.39
2018-06-11T08:43:32.559Z,26.41
2018-06-11T08:44:40.626Z,26.59
2018-06-11T08:45:48.736Z,26.56
2018-06-11T08:46:56.782Z,26.66
2018-06-11T08:48:04.843Z,26.73
2018-06-11T08:49:12.952Z,26.88
2018-06-11T08:50:21.025Z,26.76
2018-06-11T08:51:29.092Z,26.92
2018-06-11T08:52:37.181Z,26.82
2018-06-11T08:53:45.215Z,26.89
2018-06-11T08:54:53.321Z,26.78
2018-06-11T08:56:01.404Z,26.79
2018-06-11T08:57:09.468Z,26.89
2018-06-11T08:58:17.539Z,26.89
2018-06-11T08:59:25.613Z,26.88
2018-06-11T09:00:33.702Z,26.85
2018-06-11T09:01:41.770Z,27.01
2018-06-11T09:02:49.860Z,26.83
2018-06-11T09:03:57.927Z,26.88
2018-06-11T09:05:06.002Z,26.81
2018-06-11T09:06:14.101Z,26.85
2018-06-11T09:07:22.170Z,26.76
2018-06-11T09:08:30.245Z,26.85
2018-06-11T09:09:38.306Z,26.82
2018-06-11T09:10:46.385Z,26.81
2018-06-11T09:11:54.461Z,26.60
2018-06-11T09:13:02.558Z,26.59
2018-06-11T09:14:10.608Z,26.44
2018-06-11T09:15:18.703Z,26.37
2018-06-11T09:16:26.760Z,26.36
2018-06-11T09:17:34.819Z,26.24
2018-06-11T09:18:42.925Z,26.26
2018-06-11T09:19:50.993Z,26.31
2018-06-11T09:20:59.079Z,26.18
2018-06-11T09:22:07.250Z,26.07
2018-06-11T09:23:15.191Z,26.03
2018-06-11T09:24:23.304Z,25.89
2018-06-11T09:25:31.378Z,25.77
2018-06-11T09:26:39.433Z,25.85
2018-06-11T09:27:47.521Z,25.76
2018-06-11T09:28:55.589Z,25.83
2018-06-11T09:30:03.669Z,25.88
2018-06-11T09:31:11.753Z,25.88
2018-06-11T09:32:19.829Z,25.86
2018-06-11T09:33:27.909Z,26.01
2018-06-11T09:34:35.967Z,26.08
2018-06-11T09:35:44.037Z,26.10
2018-06-11T09:36:52.170Z,26.19
2018-06-11T09:38:00.199Z,26.11
2018-06-11T09:39:08.293Z,26.08
2018-06-11T09:40:16.364Z,26.08
2018-06-11T09:41:24.414Z,26.16
2018-06-11T09:42:32.489Z,26.19
2018-06-11T09:43:40.590Z,26.18
2018-06-11T09:44:48.688Z,26.15
2018-06-11T09:45:56.717Z,26.13
2018-06-11T09:47:04.777Z,26.18
2018-06-11T09:48:12.885Z,26.13
2018-06-11T09:49:20.967Z,26.07
2018-06-11T09:50:29.045Z,26.23
2018-06-11T09:51:37.117Z,26.22
2018-06-11T09:52:45.189Z,26.23
2018-06-11T09:53:53.252Z,26.33
2018-06-11T09:55:01.333Z,26.11
2018-06-11T09:56:09.412Z,26.15
2018-06-11T09:57:17.476Z,26.10
2018-06-11T09:58:25.545Z,26.01
2018-06-11T09:59:33.628Z,25.93
2018-06-11T10:00:41.724Z,25.91
2018-06-11T10:01:49.776Z,25.92
2018-06-11T10:02:57.913Z,25.77
2018-06-11T10:04:05.954Z,25.70
2018-06-11T10:05:14.009Z,25.58
2018-06-11T10:06:22.080Z,25.56
2018-06-11T10:07:30.154Z,25.55
2018-06-11T10:08:38.216Z,25.54
2018-06-11T10:09:46.292Z,25.48
2018-06-11T10:10:54.350Z,25.44
2018-06-11T10:12:02.449Z,25.39
2018-06-11T10:13:10.519Z,25.37
2018-06-11T10:14:18.610Z,25.37
2018-06-11T10:15:26.710Z,25.36
2018-06-11T10:16:34.704Z,25.49
2018-06-11T10:17:42.828Z,25.58
2018-06-11T10:18:51.095Z,25.55
2018-06-11T10:19:58.965Z,25.70
2018-06-11T10:21:07.048Z,25.71
2018-06-11T10:22:15.089Z,25.71
2018-06-11T10:23:23.183Z,25.71
2018-06-11T10:24:31.265Z,25.67
2018-06-11T10:25:39.337Z,25.86
2018-06-11T10:26:47.418Z,25.92
2018-06-11T10:27:55.472Z,25.93
2018-06-11T10:29:03.556Z,25.86
2018-06-11T10:30:11.629Z,25.91
2018-06-11T10:31:19.716Z,25.89
2018-06-11T10:32:27.778Z,25.85
2018-06-11T10:33:35.854Z,25.96
2018-06-11T10:34:43.942Z,25.91
2018-06-11T10:35:52.024Z,26.04
2018-06-11T10:37:00.078Z,26.15
2018-06-11T10:38:08.162Z,26.16
2018-06-11T10:39:16.267Z,26.19
2018-06-11T10:40:24.308Z,26.15
2018-06-11T10:41:32.379Z,26.11
2018-06-11T10:42:40.444Z,26.11
2018-06-11T10:43:48.531Z,26.27
2018-06-11T10:44:56.597Z,26.31
2018-06-11T10:46:04.640Z,26.29
2018-06-11T10:47:12.757Z,26.34
2018-06-11T10:48:20.835Z,26.33
2018-06-11T10:49:28.880Z,26.34
2018-06-11T10:50:36.995Z,26.46
2018-06-11T10:51:45.043Z,26.48
2018-06-11T10:52:53.116Z,26.60
2018-06-11T10:54:01.194Z,26.66
2018-06-11T10:55:09.261Z,26.81
2018-06-11T10:56:17.346Z,26.88
2018-06-11T10:57:25.430Z,26.85
2018-06-11T10:58:33.474Z,26.93
2018-06-11T10:59:41.553Z,27.16
2018-06-11T11:00:49.628Z,27.28
2018-06-11T11:01:57.740Z,27.37
2018-06-11T11:03:05.778Z,27.33
2018-06-11T11:04:13.859Z,27.43
2018-06-11T11:05:21.926Z,27.34
2018-06-11T11:06:30.012Z,27.38
2018-06-11T11:07:38.078Z,27.26
2018-06-11T11:08:46.158Z,27.34
2018-06-11T11:09:54.248Z,27.35
2018-06-11T11:11:02.315Z,27.35
2018-06-11T11:12:10.403Z,27.35
2018-06-11T11:13:18.463Z,27.26
2018-06-11T11:14:26.614Z,27.19
2018-06-11T11:15:34.596Z,27.26
2018-06-11T11:16:42.682Z,27.25
2018-06-11T11:17:50.749Z,27.26
2018-06-11T11:18:58.824Z,27.11
2018-06-11T11:20:06.910Z,27.04
2018-06-11T11:21:14.965Z,26.98
2018-06-11T11:22:23.061Z,26.85
2018-06-11T11:23:31.134Z,26.76
2018-06-11T11:24:39.213Z,26.68
2018-06-11T11:25:47.306Z,26.49
2018-06-11T11:26:55.369Z,26.37
2018-06-11T11:28:03.446Z,26.27
2018-06-11T11:29:11.517Z,26.15
2018-06-11T11:30:19.568Z,25.99
2018-06-11T11:31:27.663Z,25.85
2018-06-11T11:32:35.719Z,25.70
2018-06-11T11:33:43.827Z,25.68
2018-06-11T11:34:51.885Z,25.52
2018-06-11T11:36:04.026Z,25.54
2018-06-11T11:37:09.443Z,25.48
2018-06-11T11:38:16.112Z,25.33
2018-06-11T11:39:24.200Z,25.21
2018-06-11T11:40:32.266Z,25.12
2018-06-11T11:41:40.333Z,24.96
2018-06-11T11:42:48.401Z,24.94
2018-06-11T11:43:56.483Z,24.88
2018-06-11T11:45:04.552Z,24.81
2018-06-11T11:46:12.629Z,24.74
2018-06-11T11:47:20.712Z,24.59
2018-06-11T11:48:28.799Z,24.59
2018-06-11T11:49:36.855Z,24.59
2018-06-11T11:50:44.897Z,24.62
2018-06-11T11:51:52.998Z,24.77
2018-06-11T11:53:01.073Z,24.88
2018-06-11T11:54:09.150Z,24.92
2018-06-11T11:55:17.210Z,25.12
2018-06-11T11:56:25.262Z,25.18
2018-06-11T11:57:33.376Z,25.14
2018-06-11T11:58:41.441Z,25.34
2018-06-11T11:59:49.508Z,25.37
2018-06-11T12:00:57.596Z,25.46
2018-06-11T12:02:05.655Z,25.58
2018-06-11T12:03:13.726Z,25.73
2018-06-11T12:04:21.822Z,25.85
2018-06-11T12:05:29.893Z,25.88
2018-06-11T12:06:37.953Z,25.98
2018-06-11T12:07:46.039Z,25.89
2018-06-11T12:08:54.112Z,25.91
2018-06-11T12:10:02.179Z,25.88
2018-06-11T12:11:10.260Z,25.80
2018-06-11T12:12:18.329Z,25.77
2018-06-11T12:13:26.401Z,25.85
2018-06-11T12:14:34.490Z,25.67
2018-06-11T12:15:43.781Z,25.56
2018-06-11T12:16:50.626Z,25.62
2018-06-11T12:17:58.717Z,25.39
2018-06-11T12:19:06.847Z,25.24
2018-06-11T12:20:14.829Z,25.26
2018-06-11T12:21:22.936Z,25.22
2018-06-11T12:22:30.991Z,25.29
2018-06-11T12:23:39.080Z,25.26
2018-06-11T12:24:47.139Z,25.34
2018-06-11T12:25:55.208Z,25.33
2018-06-11T12:27:03.320Z,25.44
2018-06-11T12:28:11.374Z,25.55
2018-06-11T12:29:19.421Z,25.70
2018-06-11T12:30:27.513Z,25.83
2018-06-11T12:31:35.574Z,25.73
2018-06-11T12:32:43.660Z,25.91
2018-06-11T12:33:51.763Z,25.89
2018-06-11T12:34:59.807Z,25.85
2018-06-11T12:36:07.865Z,25.93
2018-06-11T12:37:15.957Z,25.92
2018-06-11T12:38:24.039Z,25.98
2018-06-11T12:39:32.100Z,25.83
2018-06-11T12:40:40.192Z,26.03
2018-06-11T12:41:48.254Z,25.88
2018-06-11T12:42:56.335Z,25.86
2018-06-11T12:44:04.395Z,25.81
2018-06-11T12:45:12.481Z,25.67
2018-06-11T12:46:20.523Z,25.71
2018-06-11T12:47:28.641Z,25.71
2018-06-11T12:48:36.704Z,25.73
2018-06-11T12:49:44.764Z,25.80
2018-06-11T12:50:52.861Z,25.73
2018-06-11T12:52:00.933Z,25.76
2018-06-11T12:53:08.992Z,25.85
2018-06-11T12:54:17.069Z,25.83
2018-06-11T12:55:25.120Z,25.89
2018-06-11T12:56:33.215Z,25.85
2018-06-11T12:57:41.299Z,25.93
2018-06-11T12:58:49.370Z,25.98
2018-06-11T12:59:57.431Z,25.95
2018-06-11T13:01:05.503Z,25.93
2018-06-11T13:02:13.590Z,26.11
2018-06-11T13:03:21.666Z,26.27
2018-06-11T13:04:29.775Z,26.22
2018-06-11T13:05:37.830Z,26.31
2018-06-11T13:06:45.885Z,26.16
2018-06-11T13:07:53.963Z,26.27
2018-06-11T13:09:02.026Z,26.22
2018-06-11T13:10:10.118Z,26.30
2018-06-11T13:11:18.211Z,26.26
2018-06-11T13:12:26.257Z,26.19
2018-06-11T13:13:34.346Z,26.29
2018-06-11T13:14:42.418Z,26.34
2018-06-11T13:15:50.479Z,26.34
2018-06-11T13:16:58.557Z,26.48
2018-06-11T13:18:06.629Z,26.56
2018-06-11T13:19:14.692Z,26.51
2018-06-11T13:20:22.987Z,26.48
2018-06-11T13:21:30.853Z,26.37
2018-06-11T13:22:38.915Z,26.24
2018-06-11T13:23:47.021Z,26.36
2018-06-11T13:24:55.051Z,26.31
2018-06-11T13:26:03.135Z,26.22
2018-06-11T13:27:11.221Z,26.11
2018-06-11T13:28:19.306Z,26.15
2018-06-11T13:29:27.366Z,26.03
2018-06-11T13:30:35.487Z,25.96
2018-06-11T13:31:43.520Z,25.83
2018-06-11T13:32:51.604Z,25.81
2018-06-11T13:33:59.671Z,25.59
2018-06-11T13:35:07.738Z,25.54
2018-06-11T13:36:15.836Z,25.44
2018-06-11T13:37:23.918Z,25.39
2018-06-11T13:38:31.973Z,25.29
2018-06-11T13:39:40.031Z,25.16
2018-06-11T13:40:48.124Z,25.14
2018-06-11T13:41:56.214Z,25.09
2018-06-11T13:43:04.284Z,25.07
2018-06-11T13:44:12.342Z,25.06
2018-06-11T13:45:20.431Z,24.96
2018-06-11T13:46:28.483Z,24.97
2018-06-11T13:47:36.560Z,24.94
2018-06-11T13:48:44.639Z,24.74
2018-06-11T13:49:52.713Z,24.74
2018-06-11T13:51:00.778Z,24.61
2018-06-11T13:52:08.866Z,24.58
2018-06-11T13:53:16.924Z,24.56
2018-06-11T13:54:25.002Z,24.59
2018-06-11T13:55:33.095Z,24.44
2018-06-11T13:56:41.137Z,24.34
2018-06-11T13:57:49.230Z,24.37
2018-06-11T13:58:57.308Z,24.36
2018-06-11T14:00:05.358Z,24.32
2018-06-11T14:01:14.859Z,24.25
2018-06-11T14:02:21.529Z,24.19
2018-06-11T14:03:29.576Z,24.19
2018-06-11T14:04:37.672Z,24.25
2018-06-11T14:05:45.739Z,24.22
2018-06-11T14:06:53.816Z,24.21
2018-06-11T14:08:04.901Z,24.31
2018-06-11T14:09:17.101Z,24.37
2018-06-11T14:10:23.069Z,24.31
2018-06-11T14:11:29.131Z,24.37
2018-06-11T14:12:37.201Z,24.40
2018-06-11T14:13:45.233Z,24.31
2018-06-11T14:14:53.331Z,24.40
2018-06-11T14:16:01.406Z,24.48
2018-06-11T14:17:09.496Z,24.48
2018-06-11T14:18:17.550Z,24.58
2018-06-11T14:19:25.625Z,24.46
2018-06-11T14:20:33.711Z,24.55
2018-06-11T14:21:41.784Z,24.59
2018-06-11T14:22:49.862Z,24.53
2018-06-11T14:23:57.930Z,24.58
2018-06-11T14:25:05.983Z,24.46
2018-06-11T14:26:14.070Z,24.48
2018-06-11T14:27:22.142Z,24.47
2018-06-11T14:28:30.310Z,24.58
2018-06-11T14:29:38.333Z,24.59
2018-06-11T14:30:46.382Z,24.71
2018-06-11T14:31:54.423Z,24.78
2018-06-11T14:33:02.518Z,24.58
2018-06-11T14:34:10.579Z,24.74
2018-06-11T14:35:18.658Z,24.82
2018-06-11T14:36:26.727Z,24.82
2018-06-11T14:37:35.887Z,24.86